createdAt,value
2023-05-25T00:02:14.752Z,60.08
2023-05-25T00:04:48.043Z,60.20
2023-05-25T00:07:18.228Z,60.55
2023-05-25T00:09:46.824Z,60.56
2023-05-25T00:12:15.865Z,60.31
2023-05-25T00:14:45.820Z,60.36
2023-05-25T00:17:14.963Z,60.68
2023-05-25T00:19:48.272Z,60.55
2023-05-25T00:22:17.447Z,60.43
2023-05-25T00:24:46.536Z,60.63
2023-05-25T00:27:15.208Z,60.72
2023-05-25T00:29:46.172Z,60.65
2023-05-25T00:32:15.001Z,60.90
2023-05-25T00:34:43.698Z,60.98
2023-05-25T00:37:14.944Z,60.57
2023-05-25T00:39:43.692Z,60.82
2023-05-25T00:42:13.013Z,60.79
2023-05-25T00:44:42.010Z,60.90
2023-05-25T00:47:11.908Z,60.86
2023-05-25T00:49:42.400Z,60.83
2023-05-25T00:52:13.030Z,61.10
2023-05-25T00:54:41.693Z,61.09
2023-05-25T00:57:13.998Z,61.07
2023-05-25T00:59:51.173Z,61.35
2023-05-25T01:02:28.070Z,61.29
2023-05-25T01:05:03.030Z,61.13
2023-05-25T01:07:34.236Z,61.33
2023-05-25T01:10:11.506Z,61.30
2023-05-25T01:12:45.632Z,61.25
2023-05-25T01:15:17.724Z,61.34
2023-05-25T01:17:48.197Z,61.41
2023-05-25T01:20:17.186Z,61.25
2023-05-25T01:22:53.486Z,61.60
2023-05-25T01:25:29.302Z,61.30
2023-05-25T01:28:03.872Z,61.45
2023-05-25T01:30:34.259Z,61.50
2023-05-25T01:33:07.110Z,61.45
2023-05-25T01:35:38.746Z,61.68
2023-05-25T01:38:10.048Z,61.93
2023-05-25T01:40:38.730Z,62.00
2023-05-25T01:43:07.678Z,61.99
2023-05-25T01:45:38.194Z,61.92
2023-05-25T01:48:15.913Z,61.72
2023-05-25T01:50:55.092Z,61.74
2023-05-25T01:53:30.716Z,62.07
2023-05-25T01:56:02.406Z,61.95
2023-05-25T01:58:36.602Z,62.23
2023-05-25T02:01:07.102Z,62.07
2023-05-25T02:03:40.377Z,62.21
2023-05-25T02:06:09.328Z,62.16
2023-05-25T02:08:38.453Z,62.11
2023-05-25T02:11:09.749Z,62.27
2023-05-25T02:13:39.062Z,62.15
2023-05-25T02:16:09.146Z,62.19
2023-05-25T02:18:38.023Z,62.15
2023-05-25T02:21:09.683Z,62.19
2023-05-25T02:23:39.445Z,62.19
2023-05-25T02:26:09.908Z,62.21
2023-05-25T02:28:40.185Z,62.35
2023-05-25T02:31:08.726Z,62.29
2023-05-25T02:33:38.215Z,62.28
2023-05-25T02:36:08.865Z,62.16
2023-05-25T02:38:38.183Z,62.39
2023-05-25T02:41:09.509Z,62.34
2023-05-25T02:43:39.657Z,62.36
2023-05-25T02:46:08.347Z,62.36
2023-05-25T02:48:37.649Z,62.33
2023-05-25T02:51:07.063Z,62.57
2023-05-25T02:53:36.096Z,62.71
2023-05-25T02:56:10.078Z,62.38
2023-05-25T02:58:39.127Z,62.44
2023-05-25T03:01:17.895Z,62.44
2023-05-25T03:03:51.903Z,62.68
2023-05-25T03:06:24.118Z,62.45
2023-05-25T03:08:58.068Z,62.85
2023-05-25T03:11:27.233Z,62.76
2023-05-25T03:14:01.128Z,63.01
2023-05-25T03:16:35.679Z,62.85
2023-05-25T03:19:05.634Z,62.96
2023-05-25T03:21:36.035Z,62.81
2023-05-25T03:24:07.649Z,62.87
2023-05-25T03:26:36.399Z,62.95
2023-05-25T03:29:06.643Z,62.72
2023-05-25T03:31:43.549Z,63.11
2023-05-25T03:34:12.951Z,63.02
2023-05-25T03:36:45.321Z,62.91
2023-05-25T03:39:14.203Z,63.08
2023-05-25T03:41:43.616Z,63.08
2023-05-25T03:44:12.923Z,62.94
2023-05-25T03:46:52.200Z,62.98
2023-05-25T03:49:22.101Z,63.10
2023-05-25T03:51:52.365Z,63.12
2023-05-25T03:54:25.335Z,63.12
2023-05-25T03:57:12.849Z,63.31
2023-05-25T03:59:44.125Z,63.04
2023-05-25T04:02:20.986Z,63.25
2023-05-25T04:04:54.591Z,63.49
2023-05-25T04:07:24.366Z,63.41
2023-05-25T04:09:53.608Z,63.34
2023-05-25T04:12:24.858Z,63.49
2023-05-25T04:14:58.996Z,63.60
2023-05-25T04:17:28.606Z,63.65
2023-05-25T04:20:04.779Z,63.40
2023-05-25T04:22:39.596Z,63.23
2023-05-25T04:25:12.793Z,63.40
2023-05-25T04:27:41.850Z,63.24
2023-05-25T04:30:16.148Z,63.50
2023-05-25T04:33:03.614Z,63.52
2023-05-25T04:35:57.964Z,63.67
2023-05-25T04:38:34.913Z,63.66
2023-05-25T04:41:07.091Z,63.82
2023-05-25T04:43:36.622Z,63.60
2023-05-25T04:46:07.443Z,63.56
2023-05-25T04:48:40.437Z,63.81
2023-05-25T04:51:14.664Z,63.66
2023-05-25T04:53:46.991Z,63.80
2023-05-25T04:56:17.685Z,63.76
2023-05-25T04:58:54.493Z,63.51
2023-05-25T05:01:25.882Z,63.61
2023-05-25T05:03:55.864Z,63.64
2023-05-25T05:06:27.100Z,63.69
2023-05-25T05:09:01.433Z,63.57
2023-05-25T05:11:45.236Z,63.71
2023-05-25T05:14:16.602Z,63.60
2023-05-25T05:16:50.871Z,63.53
2023-05-25T05:19:20.208Z,63.43
2023-05-25T05:21:54.018Z,63.63
2023-05-25T05:24:26.762Z,63.91
2023-05-25T05:26:58.827Z,63.91
2023-05-25T05:29:57.309Z,63.98
2023-05-25T05:32:26.944Z,63.79
2023-05-25T05:34:57.890Z,63.84
2023-05-25T05:38:01.659Z,63.89
2023-05-25T05:40:30.718Z,63.76
2023-05-25T05:43:07.212Z,63.94
2023-05-25T05:45:36.208Z,63.92
2023-05-25T05:48:09.348Z,63.74
2023-05-25T05:50:41.084Z,63.94
2023-05-25T05:53:11.779Z,63.77
2023-05-25T05:55:40.875Z,63.81
2023-05-25T05:58:10.054Z,64.02
2023-05-25T06:00:38.998Z,64.20
2023-05-25T06:03:09.977Z,64.07
2023-05-25T06:05:38.681Z,63.85
2023-05-25T06:08:09.791Z,64.23
2023-05-25T06:10:39.265Z,63.90
2023-05-25T06:13:12.478Z,64.08
2023-05-25T06:15:41.350Z,64.00
2023-05-25T06:18:13.574Z,64.20
2023-05-25T06:20:46.110Z,63.86
2023-05-25T06:23:17.422Z,63.91
2023-05-25T06:25:47.507Z,64.00
2023-05-25T06:28:17.888Z,64.06
2023-05-25T06:30:47.758Z,63.91
2023-05-25T06:33:17.356Z,64.17
2023-05-25T06:35:47.323Z,63.91
2023-05-25T06:38:17.908Z,63.98
2023-05-25T06:40:46.839Z,64.17
2023-05-25T06:43:16.777Z,63.94
2023-05-25T06:45:56.651Z,63.83
2023-05-25T06:48:28.120Z,63.93
2023-05-25T06:50:59.701Z,64.10
2023-05-25T06:53:31.479Z,64.02
2023-05-25T06:56:01.040Z,64.16
2023-05-25T06:58:32.208Z,63.98
2023-05-25T07:01:03.719Z,63.78
2023-05-25T07:03:38.197Z,63.96
2023-05-25T07:06:08.716Z,63.94
2023-05-25T07:08:38.851Z,63.87
2023-05-25T07:11:10.087Z,64.05
2023-05-25T07:13:39.018Z,63.76
2023-05-25T07:16:09.014Z,63.79
2023-05-25T07:18:40.720Z,63.78
2023-05-25T07:21:14.375Z,63.99
2023-05-25T07:23:45.805Z,64.04
2023-05-25T07:26:17.794Z,64.05
2023-05-25T07:28:46.762Z,63.91
2023-05-25T07:31:16.104Z,64.03
2023-05-25T07:33:46.062Z,63.96
2023-05-25T07:36:15.185Z,64.15
2023-05-25T07:38:44.156Z,64.19
2023-05-25T07:41:13.324Z,64.15
2023-05-25T07:43:41.876Z,64.25
2023-05-25T07:46:10.677Z,64.15
2023-05-25T07:48:42.703Z,64.32
2023-05-25T07:51:11.419Z,64.15
2023-05-25T07:53:42.517Z,64.07
2023-05-25T07:56:11.306Z,64.18
2023-05-25T07:58:40.573Z,64.02
2023-05-25T08:01:09.222Z,64.04
2023-05-25T08:03:48.861Z,63.88
2023-05-25T08:06:19.174Z,64.16
2023-05-25T08:08:50.350Z,64.10
2023-05-25T08:11:26.214Z,64.03
2023-05-25T08:13:55.499Z,64.20
2023-05-25T08:16:24.895Z,64.13
2023-05-25T08:18:56.192Z,64.07
2023-05-25T08:21:27.491Z,63.95
2023-05-25T08:23:57.135Z,63.86
2023-05-25T08:26:41.282Z,63.84
2023-05-25T08:29:16.673Z,63.67
2023-05-25T08:31:49.186Z,63.72
2023-05-25T08:34:18.839Z,63.69
2023-05-25T08:36:48.183Z,63.84
2023-05-25T08:39:18.382Z,63.70
2023-05-25T08:41:48.034Z,63.67
2023-05-25T08:44:17.177Z,63.61
2023-05-25T08:46:48.894Z,63.62
2023-05-25T08:49:18.134Z,63.50
2023-05-25T08:51:50.880Z,63.56
2023-05-25T08:54:22.621Z,63.47
2023-05-25T08:56:57.641Z,63.18
2023-05-25T08:59:37.936Z,63.08
2023-05-25T09:02:21.257Z,63.23
2023-05-25T09:04:50.203Z,62.99
2023-05-25T09:07:20.802Z,62.93
2023-05-25T09:09:50.359Z,63.09
2023-05-25T09:12:24.431Z,63.20
2023-05-25T09:14:54.746Z,63.02
2023-05-25T09:17:27.072Z,63.05
2023-05-25T09:19:56.165Z,62.95
2023-05-25T09:22:25.572Z,63.06
2023-05-25T09:24:55.671Z,63.12
2023-05-25T09:27:27.313Z,63.00
2023-05-25T09:29:59.576Z,62.90
2023-05-25T09:32:28.373Z,62.96
2023-05-25T09:35:08.804Z,63.00
2023-05-25T09:37:37.697Z,63.01
2023-05-25T09:40:10.800Z,63.01
2023-05-25T09:42:39.652Z,62.74
2023-05-25T09:45:11.021Z,62.81
2023-05-25T09:47:41.329Z,62.95
2023-05-25T09:50:12.404Z,62.93
2023-05-25T09:52:42.171Z,63.02
2023-05-25T09:55:12.994Z,63.16
2023-05-25T09:57:42.951Z,63.21
2023-05-25T10:00:15.459Z,63.39
2023-05-25T10:02:44.173Z,63.67
2023-05-25T10:05:13.112Z,63.49
2023-05-25T10:07:44.170Z,63.27
2023-05-25T10:10:16.074Z,63.45
2023-05-25T10:12:45.735Z,63.29
2023-05-25T10:15:16.470Z,63.27
2023-05-25T10:17:51.686Z,62.90
2023-05-25T10:20:26.055Z,63.02
2023-05-25T10:23:07.366Z,62.74
2023-05-25T10:25:40.294Z,62.54
2023-05-25T10:28:14.417Z,62.15
2023-05-25T10:30:44.356Z,61.99
2023-05-25T10:33:13.697Z,61.40
2023-05-25T10:36:01.468Z,61.09
2023-05-25T10:38:34.300Z,60.54
2023-05-25T10:41:05.857Z,60.50
2023-05-25T10:43:35.457Z,60.26
2023-05-25T10:46:07.650Z,60.02
2023-05-25T10:48:37.504Z,59.68
2023-05-25T10:51:07.714Z,59.25
2023-05-25T10:53:38.360Z,59.23
2023-05-25T10:56:10.136Z,59.07
2023-05-25T10:58:43.249Z,58.72
2023-05-25T11:01:13.755Z,58.36
2023-05-25T11:03:53.787Z,57.99
2023-05-25T11:06:44.327Z,58.14
2023-05-25T11:09:27.316Z,58.17
2023-05-25T11:12:03.410Z,57.85
2023-05-25T11:14:36.595Z,57.65
2023-05-25T11:17:09.928Z,57.42
2023-05-25T11:19:49.459Z,57.03
2023-05-25T11:22:20.834Z,57.06
2023-05-25T11:24:50.803Z,56.65
2023-05-25T11:27:27.851Z,56.37
2023-05-25T11:30:00.070Z,56.43
2023-05-25T11:32:29.434Z,56.35
2023-05-25T11:34:58.977Z,55.59
2023-05-25T11:37:30.922Z,55.70
2023-05-25T11:40:00.301Z,54.99
2023-05-25T11:42:30.457Z,55.07
2023-05-25T11:45:06.803Z,55.19
2023-05-25T11:47:37.300Z,54.98
2023-05-25T11:50:16.479Z,54.15
2023-05-25T11:52:45.253Z,53.76
2023-05-25T11:55:14.833Z,54.17
2023-05-25T11:57:43.595Z,54.23
2023-05-25T12:00:25.282Z,54.16
2023-05-25T12:02:54.400Z,53.97
2023-05-25T12:05:25.988Z,54.03
2023-05-25T12:07:54.692Z,53.95
2023-05-25T12:10:24.527Z,53.72
2023-05-25T12:12:57.753Z,53.58
2023-05-25T12:15:28.761Z,53.48
2023-05-25T12:17:57.950Z,53.57
2023-05-25T12:20:27.131Z,53.05
2023-05-25T12:22:57.781Z,52.98
2023-05-25T12:25:27.362Z,53.08
2023-05-25T12:28:14.493Z,53.04
2023-05-25T12:30:43.638Z,53.00
2023-05-25T12:33:17.695Z,52.86
2023-05-25T12:35:48.516Z,52.39
2023-05-25T12:38:18.608Z,52.30
2023-05-25T12:40:47.701Z,52.42
2023-05-25T12:43:17.062Z,52.29
2023-05-25T12:45:46.258Z,52.25
2023-05-25T12:48:15.737Z,52.04
2023-05-25T12:50:58.529Z,52.42
2023-05-25T12:53:28.474Z,52.21
2023-05-25T12:56:12.043Z,52.50
2023-05-25T12:58:40.980Z,52.48
2023-05-25T13:01:11.818Z,52.37
2023-05-25T13:03:40.991Z,52.41
2023-05-25T13:06:10.066Z,52.31
2023-05-25T13:08:38.993Z,52.06
2023-05-25T13:11:09.139Z,52.10
2023-05-25T13:13:41.778Z,52.18
2023-05-25T13:16:11.431Z,52.03
2023-05-25T13:18:40.795Z,51.61
2023-05-25T13:21:09.756Z,51.43
2023-05-25T13:23:38.471Z,51.32
2023-05-25T13:26:07.669Z,51.75
2023-05-25T13:28:36.535Z,51.46
2023-05-25T13:31:05.398Z,51.31
2023-05-25T13:33:36.744Z,51.18
2023-05-25T13:36:07.832Z,51.11
2023-05-25T13:38:37.606Z,51.17
2023-05-25T13:41:06.501Z,51.50
2023-05-25T13:43:35.289Z,51.66
2023-05-25T13:46:07.694Z,51.93
2023-05-25T13:48:38.835Z,51.85
2023-05-25T13:51:08.863Z,51.57
2023-05-25T13:53:37.466Z,51.28
2023-05-25T13:56:07.155Z,51.31
2023-05-25T13:58:36.427Z,51.39
2023-05-25T14:01:05.630Z,51.34
2023-05-25T14:03:34.512Z,51.45
2023-05-25T14:06:04.325Z,51.59
2023-05-25T14:08:33.230Z,51.65
2023-05-25T14:11:02.543Z,51.97
2023-05-25T14:13:31.305Z,52.05
2023-05-25T14:16:00.634Z,51.91
2023-05-25T14:18:31.796Z,52.01
2023-05-25T14:21:04.429Z,52.34
2023-05-25T14:23:33.294Z,52.41
2023-05-25T14:26:03.618Z,52.08
2023-05-25T14:28:32.589Z,52.06
2023-05-25T14:31:01.782Z,51.94
2023-05-25T14:33:30.600Z,51.81
2023-05-25T14:35:59.429Z,51.89
2023-05-25T14:38:29.908Z,52.18
2023-05-25T14:40:58.888Z,52.35
2023-05-25T14:43:27.442Z,52.30
2023-05-25T14:45:56.332Z,52.28
2023-05-25T14:48:26.293Z,52.05
2023-05-25T14:50:55.290Z,51.95
2023-05-25T14:53:26.196Z,51.71
2023-05-25T14:55:54.780Z,51.73
2023-05-25T14:58:25.066Z,51.79
2023-05-25T15:00:54.212Z,51.97
2023-05-25T15:03:25.285Z,52.18
2023-05-25T15:05:54.333Z,52.18
2023-05-25T15:08:24.827Z,52.25
2023-05-25T15:10:56.672Z,52.22
2023-05-25T15:13:28.252Z,52.05
2023-05-25T15:15:59.324Z,51.82
2023-05-25T15:18:28.330Z,51.97
2023-05-25T15:20:57.999Z,51.98
2023-05-25T15:23:27.375Z,51.96
2023-05-25T15:25:57.138Z,51.96
2023-05-25T15:28:27.314Z,52.01
2023-05-25T15:31:00.011Z,52.17
2023-05-25T15:33:48.635Z,52.08
2023-05-25T15:36:22.566Z,52.34
2023-05-25T15:38:53.085Z,52.59
2023-05-25T15:41:23.021Z,52.48
2023-05-25T15:43:57.365Z,52.48
2023-05-25T15:46:27.368Z,52.42
2023-05-25T15:48:56.437Z,52.42
2023-05-25T15:51:27.810Z,52.44
2023-05-25T15:53:56.604Z,52.57
2023-05-25T15:56:26.208Z,52.53
2023-05-25T15:58:55.030Z,52.62
2023-05-25T16:01:25.753Z,52.64
2023-05-25T16:03:54.960Z,52.57
2023-05-25T16:06:25.201Z,52.49
2023-05-25T16:08:54.087Z,52.59
2023-05-25T16:11:24.435Z,52.64
2023-05-25T16:13:53.454Z,52.67
2023-05-25T16:16:24.446Z,52.65
2023-05-25T16:18:53.916Z,52.66
2023-05-25T16:21:25.862Z,52.54
2023-05-25T16:23:54.661Z,52.74
2023-05-25T16:26:24.494Z,52.66
2023-05-25T16:28:53.229Z,52.68
2023-05-25T16:31:22.072Z,52.75
2023-05-25T16:33:50.856Z,52.64
2023-05-25T16:36:20.022Z,52.73
2023-05-25T16:38:51.059Z,52.66
2023-05-25T16:41:20.293Z,52.69
2023-05-25T16:43:49.145Z,52.85
2023-05-25T16:46:18.169Z,52.69
2023-05-25T16:48:50.123Z,52.78
2023-05-25T16:51:19.297Z,52.90
2023-05-25T16:53:48.349Z,52.88
2023-05-25T16:56:18.040Z,52.90
2023-05-25T16:58:46.623Z,52.90
2023-05-25T17:01:18.904Z,52.89
2023-05-25T17:03:47.798Z,52.98
2023-05-25T17:06:18.096Z,53.00
2023-05-25T17:08:48.570Z,52.94
2023-05-25T17:11:17.251Z,52.99
2023-05-25T17:13:45.967Z,52.99
2023-05-25T17:16:15.014Z,53.15
2023-05-25T17:18:43.776Z,53.25
2023-05-25T17:21:12.874Z,53.13
2023-05-25T17:23:41.768Z,53.26
2023-05-25T17:26:10.593Z,53.23
2023-05-25T17:28:39.274Z,53.29
2023-05-25T17:31:09.657Z,53.27
2023-05-25T17:33:38.806Z,53.37
2023-05-25T17:36:08.080Z,53.27
2023-05-25T17:38:37.616Z,53.44
2023-05-25T17:41:06.554Z,53.41
2023-05-25T17:43:35.377Z,53.49
2023-05-25T17:46:04.290Z,53.48
2023-05-25T17:48:33.113Z,53.49
2023-05-25T17:51:02.652Z,53.52
2023-05-25T17:53:31.333Z,53.56
2023-05-25T17:56:00.377Z,53.58
2023-05-25T17:58:33.556Z,53.65
2023-05-25T18:01:03.151Z,53.63
2023-05-25T18:03:32.581Z,53.67
2023-05-25T18:06:02.319Z,53.65
2023-05-25T18:08:31.818Z,53.76
2023-05-25T18:11:01.194Z,53.71
2023-05-25T18:13:29.911Z,53.82
2023-05-25T18:15:59.671Z,53.68
2023-05-25T18:18:28.728Z,53.94
2023-05-25T18:20:57.856Z,53.87
2023-05-25T18:23:27.856Z,53.89
2023-05-25T18:25:56.699Z,54.06
2023-05-25T18:28:29.221Z,53.93
2023-05-25T18:31:00.201Z,54.11
2023-05-25T18:33:29.678Z,54.05
2023-05-25T18:35:58.740Z,54.06
2023-05-25T18:38:27.509Z,54.12
2023-05-25T18:40:56.690Z,54.20
2023-05-25T18:43:27.775Z,54.24
2023-05-25T18:45:58.146Z,54.35
2023-05-25T18:48:27.203Z,54.27
2023-05-25T18:50:56.133Z,54.49
2023-05-25T18:53:26.116Z,54.54
2023-05-25T18:55:55.223Z,54.61
2023-05-25T18:58:25.358Z,54.81
2023-05-25T19:00:58.145Z,54.86
2023-05-25T19:03:27.334Z,54.95
2023-05-25T19:05:57.682Z,54.94
2023-05-25T19:08:27.414Z,55.15
2023-05-25T19:10:56.360Z,55.24
2023-05-25T19:13:26.223Z,55.24
2023-05-25T19:15:55.412Z,55.33
2023-05-25T19:18:25.472Z,55.57
2023-05-25T19:20:54.855Z,55.60
2023-05-25T19:23:24.515Z,55.69
2023-05-25T19:25:53.789Z,55.75
2023-05-25T19:28:22.554Z,55.88
2023-05-25T19:30:53.630Z,55.80
2023-05-25T19:33:22.476Z,55.89
2023-05-25T19:35:52.957Z,55.93
2023-05-25T19:38:28.798Z,56.12
2023-05-25T19:41:05.034Z,56.04
2023-05-25T19:43:34.034Z,56.18
2023-05-25T19:46:03.353Z,56.16
2023-05-25T19:48:32.447Z,56.18
2023-05-25T19:51:02.796Z,56.20
2023-05-25T19:53:31.985Z,56.21
2023-05-25T19:56:02.800Z,56.28
2023-05-25T19:58:31.884Z,56.32
2023-05-25T20:01:00.899Z,56.19
2023-05-25T20:03:31.959Z,56.34
2023-05-25T20:06:01.890Z,56.28
2023-05-25T20:08:30.871Z,56.40
2023-05-25T20:11:01.379Z,56.31
2023-05-25T20:13:31.194Z,56.42
2023-05-25T20:16:09.468Z,56.52
2023-05-25T20:18:38.792Z,56.72
2023-05-25T20:21:08.146Z,56.57
2023-05-25T20:23:36.820Z,56.60
2023-05-25T20:26:06.185Z,56.76
2023-05-25T20:28:37.280Z,56.88
2023-05-25T20:31:06.595Z,56.99
2023-05-25T20:33:35.547Z,57.07
2023-05-25T20:36:05.328Z,56.99
2023-05-25T20:38:34.473Z,57.15
2023-05-25T20:41:03.430Z,57.20
2023-05-25T20:43:36.409Z,57.35
2023-05-25T20:46:07.023Z,57.33
2023-05-25T20:48:43.758Z,57.30
2023-05-25T20:51:37.231Z,57.28
2023-05-25T20:54:06.310Z,57.43
2023-05-25T20:56:34.941Z,57.28
2023-05-25T20:59:03.766Z,57.31
2023-05-25T21:01:32.627Z,57.17
2023-05-25T21:04:01.273Z,57.16
2023-05-25T21:06:31.714Z,57.25
2023-05-25T21:09:01.116Z,57.31
2023-05-25T21:11:29.808Z,57.54
2023-05-25T21:13:58.555Z,57.45
2023-05-25T21:16:27.588Z,57.82
2023-05-25T21:18:56.452Z,57.93
2023-05-25T21:21:27.774Z,57.86
2023-05-25T21:23:56.402Z,57.89
2023-05-25T21:26:27.868Z,57.87
2023-05-25T21:28:56.794Z,57.87
2023-05-25T21:31:26.053Z,57.88
2023-05-25T21:33:55.004Z,58.00
2023-05-25T21:36:24.797Z,57.91
2023-05-25T21:38:53.433Z,58.18
2023-05-25T21:41:22.826Z,58.34
2023-05-25T21:43:52.098Z,58.31
2023-05-25T21:46:20.932Z,58.30
2023-05-25T21:48:49.623Z,58.52
2023-05-25T21:51:18.942Z,58.55
2023-05-25T21:53:47.533Z,58.68
2023-05-25T21:56:16.499Z,58.45
2023-05-25T21:58:45.165Z,58.41
2023-05-25T22:01:14.029Z,58.44
2023-05-25T22:03:42.619Z,58.57
2023-05-25T22:06:11.653Z,58.77
2023-05-25T22:08:40.832Z,58.87
2023-05-25T22:11:09.704Z,59.01
2023-05-25T22:13:38.372Z,58.92
2023-05-25T22:16:07.594Z,59.09
2023-05-25T22:18:38.548Z,58.91
2023-05-25T22:21:07.664Z,58.97
2023-05-25T22:23:36.800Z,59.17
2023-05-25T22:26:05.959Z,59.10
2023-05-25T22:28:34.587Z,59.07
2023-05-25T22:31:03.521Z,59.11
2023-05-25T22:33:32.445Z,59.12
2023-05-25T22:36:01.447Z,59.21
2023-05-25T22:38:29.916Z,59.24
2023-05-25T22:40:58.777Z,59.22
2023-05-25T22:43:27.434Z,59.10
2023-05-25T22:45:57.602Z,59.20
2023-05-25T22:48:27.618Z,59.19
2023-05-25T22:50:56.489Z,59.19
2023-05-25T22:53:25.661Z,59.34
2023-05-25T22:55:54.300Z,58.97
2023-05-25T22:58:22.908Z,59.00
2023-05-25T23:00:53.208Z,59.05
2023-05-25T23:03:22.233Z,59.07
2023-05-25T23:05:50.799Z,59.03
2023-05-25T23:08:19.573Z,59.39
2023-05-25T23:10:48.233Z,59.47
2023-05-25T23:13:18.528Z,59.79
2023-05-25T23:15:48.058Z,59.80
2023-05-25T23:18:17.064Z,59.72
2023-05-25T23:20:46.444Z,59.71
2023-05-25T23:23:15.463Z,59.73
2023-05-25T23:25:44.907Z,59.61
2023-05-25T23:28:14.002Z,59.66
2023-05-25T23:30:42.651Z,59.80
2023-05-25T23:33:11.364Z,59.88
2023-05-25T23:35:40.055Z,59.97
2023-05-25T23:38:08.981Z,59.95
2023-05-25T23:40:37.622Z,59.96
2023-05-25T23:43:06.379Z,60.09
2023-05-25T23:45:35.503Z,60.10
2023-05-25T23:48:06.761Z,60.33
2023-05-25T23:50:38.764Z,60.25
2023-05-25T23:53:07.901Z,60.36
2023-05-25T23:55:36.623Z,60.31
2023-05-25T23:58:05.603Z,60.25
